sensor_id;sensor_type;location;lat;lon;timestamp;P1;durP1;ratioP1;P2;durP2;ratioP2
65377;SDS011;51982;51.042;13.806;2023-11-19T00:01:22;7.13;;;3.90;;
65377;SDS011;51982;51.042;13.806;2023-11-19T00:03:48;9.10;;;5.10;;
65377;SDS011;51982;51.042;13.806;2023-11-19T00:06:13;7.45;;;4.60;;
65377;SDS011;51982;51.042;13.806;2023-11-19T00:08:38;9.27;;;4.88;;
65377;SDS011;51982;51.042;13.806;2023-11-19T00:11:04;8.55;;;4.93;;
65377;SDS011;51982;51.042;13.806;2023-11-19T00:13:29;7.32;;;4.40;;
65377;SDS011;51982;51.042;13.806;2023-11-19T00:15:55;12.75;;;5.47;;
65377;SDS011;51982;51.042;13.806;2023-11-19T00:18:21;7.32;;;5.18;;
65377;SDS011;51982;51.042;13.806;2023-11-19T00:20:47;9.70;;;4.65;;
65377;SDS011;51982;51.042;13.806;2023-11-19T00:23:12;9.30;;;4.65;;
65377;SDS011;51982;51.042;13.806;2023-11-19T00:25:37;9.10;;;4.85;;
65377;SDS011;51982;51.042;13.806;2023-11-19T00:28:03;8.02;;;4.53;;
65377;SDS011;51982;51.042;13.806;2023-11-19T00:30:29;7.38;;;5.05;;
65377;SDS011;51982;51.042;13.806;2023-11-19T00:32:56;6.97;;;3.97;;
65377;SDS011;51982;51.042;13.806;2023-11-19T00:35:21;7.55;;;4.68;;
65377;SDS011;51982;51.042;13.806;2023-11-19T00:37:46;7.13;;;3.97;;
65377;SDS011;51982;51.042;13.806;2023-11-19T00:40:12;11.25;;;4.70;;
65377;SDS011;51982;51.042;13.806;2023-11-19T00:42:38;9.98;;;5.03;;
65377;SDS011;51982;51.042;13.806;2023-11-19T00:45:04;9.63;;;5.13;;
65377;SDS011;51982;51.042;13.806;2023-11-19T00:47:33;8.38;;;3.97;;
65377;SDS011;51982;51.042;13.806;2023-11-19T00:49:58;7.18;;;3.88;;
65377;SDS011;51982;51.042;13.806;2023-11-19T00:52:23;6.55;;;4.38;;
65377;SDS011;51982;51.042;13.806;2023-11-19T00:54:49;6.35;;;4.22;;
65377;SDS011;51982;51.042;13.806;2023-11-19T00:57:14;6.28;;;3.63;;
65377;SDS011;51982;51.042;13.806;2023-11-19T00:59:42;7.15;;;3.78;;
65377;SDS011;51982;51.042;13.806;2023-11-19T01:02:08;7.32;;;4.72;;
65377;SDS011;51982;51.042;13.806;2023-11-19T01:04:34;7.30;;;3.95;;
65377;SDS011;51982;51.042;13.806;2023-11-19T01:07:01;8.07;;;4.07;;
65377;SDS011;51982;51.042;13.806;2023-11-19T01:09:28;6.18;;;3.88;;
65377;SDS011;51982;51.042;13.806;2023-11-19T01:11:54;6.97;;;3.95;;
65377;SDS011;51982;51.042;13.806;2023-11-19T01:14:19;6.20;;;3.40;;
65377;SDS011;51982;51.042;13.806;2023-11-19T01:16:45;6.53;;;4.05;;
65377;SDS011;51982;51.042;13.806;2023-11-19T01:19:10;4.97;;;3.15;;
65377;SDS011;51982;51.042;13.806;2023-11-19T01:21:36;7.05;;;3.53;;
65377;SDS011;51982;51.042;13.806;2023-11-19T01:24:01;3.13;;;1.77;;
65377;SDS011;51982;51.042;13.806;2023-11-19T01:26:28;5.70;;;3.78;;
65377;SDS011;51982;51.042;13.806;2023-11-19T01:28:54;6.25;;;3.40;;
65377;SDS011;51982;51.042;13.806;2023-11-19T01:31:19;4.63;;;3.08;;
65377;SDS011;51982;51.042;13.806;2023-11-19T01:33:44;4.55;;;2.80;;
65377;SDS011;51982;51.042;13.806;2023-11-19T01:36:14;5.03;;;3.17;;
65377;SDS011;51982;51.042;13.806;2023-11-19T01:38:40;5.93;;;2.92;;
65377;SDS011;51982;51.042;13.806;2023-11-19T01:41:05;4.32;;;2.33;;
65377;SDS011;51982;51.042;13.806;2023-11-19T01:43:31;2.65;;;1.90;;
65377;SDS011;51982;51.042;13.806;2023-11-19T01:46:01;6.13;;;2.97;;
65377;SDS011;51982;51.042;13.806;2023-11-19T01:48:28;5.25;;;3.05;;
65377;SDS011;51982;51.042;13.806;2023-11-19T01:50:53;3.53;;;2.58;;
65377;SDS011;51982;51.042;13.806;2023-11-19T01:53:20;5.28;;;2.40;;
65377;SDS011;51982;51.042;13.806;2023-11-19T01:55:46;5.03;;;2.78;;
65377;SDS011;51982;51.042;13.806;2023-11-19T01:58:12;4.63;;;2.58;;
65377;SDS011;51982;51.042;13.806;2023-11-19T02:00:38;2.80;;;1.75;;
65377;SDS011;51982;51.042;13.806;2023-11-19T02:03:03;3.63;;;2.30;;
65377;SDS011;51982;51.042;13.806;2023-11-19T02:05:31;4.72;;;2.60;;
65377;SDS011;51982;51.042;13.806;2023-11-19T02:07:57;5.40;;;2.45;;
65377;SDS011;51982;51.042;13.806;2023-11-19T02:10:23;3.58;;;2.38;;
65377;SDS011;51982;51.042;13.806;2023-11-19T02:12:50;4.43;;;2.17;;
65377;SDS011;51982;51.042;13.806;2023-11-19T02:15:16;3.45;;;2.00;;
65377;SDS011;51982;51.042;13.806;2023-11-19T02:17:43;3.45;;;2.10;;
65377;SDS011;51982;51.042;13.806;2023-11-19T02:20:09;3.10;;;2.00;;
65377;SDS011;51982;51.042;13.806;2023-11-19T02:22:36;3.03;;;1.83;;
65377;SDS011;51982;51.042;13.806;2023-11-19T02:25:04;2.50;;;1.75;;
65377;SDS011;51982;51.042;13.806;2023-11-19T02:30:16;2.55;;;1.73;;
65377;SDS011;51982;51.042;13.806;2023-11-19T02:32:41;3.13;;;1.83;;
65377;SDS011;51982;51.042;13.806;2023-11-19T02:35:07;2.65;;;1.90;;
65377;SDS011;51982;51.042;13.806;2023-11-19T02:37:33;5.13;;;2.00;;
65377;SDS011;51982;51.042;13.806;2023-11-19T02:39:59;2.70;;;1.73;;
65377;SDS011;51982;51.042;13.806;2023-11-19T02:42:34;4.97;;;1.88;;
65377;SDS011;51982;51.042;13.806;2023-11-19T02:45:00;1.92;;;1.55;;
65377;SDS011;51982;51.042;13.806;2023-11-19T02:47:26;3.22;;;1.75;;
65377;SDS011;51982;51.042;13.806;2023-11-19T02:49:55;2.40;;;1.75;;
65377;SDS011;51982;51.042;13.806;2023-11-19T02:52:20;7.15;;;1.60;;
65377;SDS011;51982;51.042;13.806;2023-11-19T02:54:45;2.50;;;1.67;;
65377;SDS011;51982;51.042;13.806;2023-11-19T02:57:11;4.82;;;1.80;;
65377;SDS011;51982;51.042;13.806;2023-11-19T02:59:38;1.83;;;1.30;;
65377;SDS011;51982;51.042;13.806;2023-11-19T03:02:06;2.17;;;1.30;;
65377;SDS011;51982;51.042;13.806;2023-11-19T03:04:32;2.78;;;1.60;;
65377;SDS011;51982;51.042;13.806;2023-11-19T03:06:58;2.75;;;1.40;;
65377;SDS011;51982;51.042;13.806;2023-11-19T03:09:24;2.92;;;1.67;;
65377;SDS011;51982;51.042;13.806;2023-11-19T03:11:49;2.47;;;1.52;;
65377;SDS011;51982;51.042;13.806;2023-11-19T03:14:15;1.48;;;1.05;;
65377;SDS011;51982;51.042;13.806;2023-11-19T03:16:40;2.05;;;1.48;;
65377;SDS011;51982;51.042;13.806;2023-11-19T03:19:05;2.15;;;1.48;;
65377;SDS011;51982;51.042;13.806;2023-11-19T03:21:30;1.58;;;1.23;;
65377;SDS011;51982;51.042;13.806;2023-11-19T03:23:57;1.98;;;1.42;;
65377;SDS011;51982;51.042;13.806;2023-11-19T03:26:25;2.70;;;1.60;;
65377;SDS011;51982;51.042;13.806;2023-11-19T03:28:52;2.58;;;1.35;;
65377;SDS011;51982;51.042;13.806;2023-11-19T03:31:17;1.75;;;1.27;;
65377;SDS011;51982;51.042;13.806;2023-11-19T03:33:42;4.07;;;1.40;;
65377;SDS011;51982;51.042;13.806;2023-11-19T03:36:08;1.58;;;1.20;;
65377;SDS011;51982;51.042;13.806;2023-11-19T03:38:34;1.15;;;1.00;;
65377;SDS011;51982;51.042;13.806;2023-11-19T03:40:59;2.20;;;1.50;;
65377;SDS011;51982;51.042;13.806;2023-11-19T03:43:24;2.25;;;1.50;;
65377;SDS011;51982;51.042;13.806;2023-11-19T03:45:49;3.22;;;1.35;;
65377;SDS011;51982;51.042;13.806;2023-11-19T03:48:15;2.80;;;1.45;;
65377;SDS011;51982;51.042;13.806;2023-11-19T03:50:43;2.08;;;1.60;;
65377;SDS011;51982;51.042;13.806;2023-11-19T03:53:09;2.42;;;1.67;;
65377;SDS011;51982;51.042;13.806;2023-11-19T03:55:34;1.83;;;1.48;;
65377;SDS011;51982;51.042;13.806;2023-11-19T03:57:59;3.25;;;1.65;;
65377;SDS011;51982;51.042;13.806;2023-11-19T04:00:24;1.08;;;0.98;;
65377;SDS011;51982;51.042;13.806;2023-11-19T04:02:50;2.30;;;1.67;;
65377;SDS011;51982;51.042;13.806;2023-11-19T04:05:15;3.95;;;1.70;;
65377;SDS011;51982;51.042;13.806;2023-11-19T04:07:40;2.90;;;1.70;;
65377;SDS011;51982;51.042;13.806;2023-11-19T04:10:06;3.08;;;1.77;;
65377;SDS011;51982;51.042;13.806;2023-11-19T04:12:31;3.55;;;2.22;;
65377;SDS011;51982;51.042;13.806;2023-11-19T04:14:57;3.15;;;2.25;;
65377;SDS011;51982;51.042;13.806;2023-11-19T04:17:22;3.15;;;1.88;;
65377;SDS011;51982;51.042;13.806;2023-11-19T04:19:48;2.83;;;1.92;;
65377;SDS011;51982;51.042;13.806;2023-11-19T04:22:13;3.65;;;1.90;;
65377;SDS011;51982;51.042;13.806;2023-11-19T04:24:38;3.42;;;2.20;;
65377;SDS011;51982;51.042;13.806;2023-11-19T04:27:05;2.80;;;1.60;;
65377;SDS011;51982;51.042;13.806;2023-11-19T04:29:31;1.48;;;1.00;;
65377;SDS011;51982;51.042;13.806;2023-11-19T04:31:56;3.20;;;1.80;;
65377;SDS011;51982;51.042;13.806;2023-11-19T04:34:22;3.20;;;2.00;;
65377;SDS011;51982;51.042;13.806;2023-11-19T04:36:47;2.65;;;1.70;;
65377;SDS011;51982;51.042;13.806;2023-11-19T04:39:12;2.92;;;1.85;;
65377;SDS011;51982;51.042;13.806;2023-11-19T04:41:46;2.63;;;1.75;;
65377;SDS011;51982;51.042;13.806;2023-11-19T04:44:13;3.30;;;2.03;;
65377;SDS011;51982;51.042;13.806;2023-11-19T04:46:38;2.38;;;1.75;;
65377;SDS011;51982;51.042;13.806;2023-11-19T04:49:03;2.88;;;2.05;;
65377;SDS011;51982;51.042;13.806;2023-11-19T04:51:29;4.40;;;2.30;;
65377;SDS011;51982;51.042;13.806;2023-11-19T04:53:55;2.92;;;1.90;;
65377;SDS011;51982;51.042;13.806;2023-11-19T04:56:21;3.55;;;2.17;;
65377;SDS011;51982;51.042;13.806;2023-11-19T04:58:48;3.10;;;2.13;;
65377;SDS011;51982;51.042;13.806;2023-11-19T05:01:14;3.90;;;2.10;;
65377;SDS011;51982;51.042;13.806;2023-11-19T05:03:43;5.60;;;1.98;;
65377;SDS011;51982;51.042;13.806;2023-11-19T05:06:08;3.35;;;2.03;;
65377;SDS011;51982;51.042;13.806;2023-11-19T05:08:33;3.08;;;1.95;;
65377;SDS011;51982;51.042;13.806;2023-11-19T05:10:59;2.92;;;2.28;;
65377;SDS011;51982;51.042;13.806;2023-11-19T05:13:24;3.28;;;1.95;;
65377;SDS011;51982;51.042;13.806;2023-11-19T05:15:49;4.20;;;2.35;;
65377;SDS011;51982;51.042;13.806;2023-11-19T05:18:15;4.82;;;2.00;;
65377;SDS011;51982;51.042;13.806;2023-11-19T05:20:40;3.05;;;2.00;;
65377;SDS011;51982;51.042;13.806;2023-11-19T05:23:06;3.85;;;2.20;;
65377;SDS011;51982;51.042;13.806;2023-11-19T05:25:31;3.47;;;2.50;;
65377;SDS011;51982;51.042;13.806;2023-11-19T05:27:57;5.18;;;2.67;;
65377;SDS011;51982;51.042;13.806;2023-11-19T05:30:22;2.85;;;1.92;;
65377;SDS011;51982;51.042;13.806;2023-11-19T05:32:48;2.35;;;1.88;;
65377;SDS011;51982;51.042;13.806;2023-11-19T05:35:13;3.70;;;2.22;;
65377;SDS011;51982;51.042;13.806;2023-11-19T05:37:38;4.63;;;2.70;;
65377;SDS011;51982;51.042;13.806;2023-11-19T05:40:04;5.18;;;2.95;;
65377;SDS011;51982;51.042;13.806;2023-11-19T05:42:39;2.63;;;1.88;;
65377;SDS011;51982;51.042;13.806;2023-11-19T05:45:04;1.38;;;1.10;;
65377;SDS011;51982;51.042;13.806;2023-11-19T05:47:30;4.35;;;2.67;;
65377;SDS011;51982;51.042;13.806;2023-11-19T05:49:55;3.42;;;2.30;;
65377;SDS011;51982;51.042;13.806;2023-11-19T05:52:20;5.57;;;3.15;;
65377;SDS011;51982;51.042;13.806;2023-11-19T05:54:47;7.45;;;3.30;;
65377;SDS011;51982;51.042;13.806;2023-11-19T05:57:16;2.08;;;1.63;;
65377;SDS011;51982;51.042;13.806;2023-11-19T05:59:45;3.28;;;1.92;;
65377;SDS011;51982;51.042;13.806;2023-11-19T06:02:10;3.55;;;2.72;;
65377;SDS011;51982;51.042;13.806;2023-11-19T06:04:35;8.13;;;2.60;;
65377;SDS011;51982;51.042;13.806;2023-11-19T06:07:01;6.15;;;2.70;;
65377;SDS011;51982;51.042;13.806;2023-11-19T06:09:26;3.95;;;2.60;;
65377;SDS011;51982;51.042;13.806;2023-11-19T06:11:51;3.55;;;2.35;;
65377;SDS011;51982;51.042;13.806;2023-11-19T06:14:17;3.92;;;2.28;;
65377;SDS011;51982;51.042;13.806;2023-11-19T06:16:43;2.92;;;2.08;;
65377;SDS011;51982;51.042;13.806;2023-11-19T06:19:08;3.10;;;2.25;;
65377;SDS011;51982;51.042;13.806;2023-11-19T06:21:35;2.95;;;2.10;;
65377;SDS011;51982;51.042;13.806;2023-11-19T06:24:02;3.22;;;2.05;;
65377;SDS011;51982;51.042;13.806;2023-11-19T06:26:27;2.67;;;1.75;;
65377;SDS011;51982;51.042;13.806;2023-11-19T06:28:52;4.45;;;1.98;;
65377;SDS011;51982;51.042;13.806;2023-11-19T06:31:17;3.28;;;2.38;;
65377;SDS011;51982;51.042;13.806;2023-11-19T06:33:43;3.58;;;1.70;;
65377;SDS011;51982;51.042;13.806;2023-11-19T06:36:08;3.63;;;1.75;;
65377;SDS011;51982;51.042;13.806;2023-11-19T06:38:34;4.72;;;2.10;;
65377;SDS011;51982;51.042;13.806;2023-11-19T06:40:59;2.38;;;1.58;;
65377;SDS011;51982;51.042;13.806;2023-11-19T06:43:25;2.40;;;1.70;;
65377;SDS011;51982;51.042;13.806;2023-11-19T06:45:50;2.10;;;1.70;;
65377;SDS011;51982;51.042;13.806;2023-11-19T06:48:16;1.90;;;1.50;;
65377;SDS011;51982;51.042;13.806;2023-11-19T06:50:41;2.10;;;1.30;;
65377;SDS011;51982;51.042;13.806;2023-11-19T06:53:06;1.92;;;1.50;;
65377;SDS011;51982;51.042;13.806;2023-11-19T06:55:35;1.45;;;1.20;;
65377;SDS011;51982;51.042;13.806;2023-11-19T06:58:00;1.55;;;1.10;;
65377;SDS011;51982;51.042;13.806;2023-11-19T07:00:27;1.58;;;1.30;;
65377;SDS011;51982;51.042;13.806;2023-11-19T07:02:52;2.15;;;1.50;;
65377;SDS011;51982;51.042;13.806;2023-11-19T07:05:18;1.60;;;1.33;;
65377;SDS011;51982;51.042;13.806;2023-11-19T07:07:43;1.58;;;1.17;;
65377;SDS011;51982;51.042;13.806;2023-11-19T07:10:11;1.60;;;1.17;;
65377;SDS011;51982;51.042;13.806;2023-11-19T07:12:37;1.35;;;1.08;;
65377;SDS011;51982;51.042;13.806;2023-11-19T07:15:02;1.80;;;1.27;;
65377;SDS011;51982;51.042;13.806;2023-11-19T07:17:29;2.55;;;1.40;;
65377;SDS011;51982;51.042;13.806;2023-11-19T07:19:55;1.70;;;1.30;;
65377;SDS011;51982;51.042;13.806;2023-11-19T07:22:24;2.05;;;1.40;;
65377;SDS011;51982;51.042;13.806;2023-11-19T07:24:49;1.42;;;0.90;;
65377;SDS011;51982;51.042;13.806;2023-11-19T07:27:15;1.52;;;1.20;;
65377;SDS011;51982;51.042;13.806;2023-11-19T07:29:40;2.00;;;1.35;;
65377;SDS011;51982;51.042;13.806;2023-11-19T07:32:07;1.85;;;1.25;;
65377;SDS011;51982;51.042;13.806;2023-11-19T07:34:33;2.03;;;1.42;;
65377;SDS011;51982;51.042;13.806;2023-11-19T07:36:59;1.83;;;1.30;;
65377;SDS011;51982;51.042;13.806;2023-11-19T07:39:27;3.95;;;1.30;;
65377;SDS011;51982;51.042;13.806;2023-11-19T07:41:52;1.20;;;1.10;;
65377;SDS011;51982;51.042;13.806;2023-11-19T07:44:17;2.88;;;1.45;;
65377;SDS011;51982;51.042;13.806;2023-11-19T07:46:43;2.17;;;1.27;;
65377;SDS011;51982;51.042;13.806;2023-11-19T07:49:09;2.70;;;1.30;;
65377;SDS011;51982;51.042;13.806;2023-11-19T07:51:35;2.28;;;1.20;;
65377;SDS011;51982;51.042;13.806;2023-11-19T07:54:01;1.45;;;1.20;;
65377;SDS011;51982;51.042;13.806;2023-11-19T07:56:26;2.35;;;1.30;;
65377;SDS011;51982;51.042;13.806;2023-11-19T07:58:52;1.92;;;1.30;;
65377;SDS011;51982;51.042;13.806;2023-11-19T08:01:17;1.98;;;1.33;;
65377;SDS011;51982;51.042;13.806;2023-11-19T08:03:43;2.38;;;1.30;;
65377;SDS011;51982;51.042;13.806;2023-11-19T08:06:08;1.67;;;1.33;;
65377;SDS011;51982;51.042;13.806;2023-11-19T08:08:33;1.52;;;1.17;;
65377;SDS011;51982;51.042;13.806;2023-11-19T08:10:59;1.73;;;1.33;;
65377;SDS011;51982;51.042;13.806;2023-11-19T08:13:25;2.42;;;1.70;;
65377;SDS011;51982;51.042;13.806;2023-11-19T08:15:51;2.72;;;1.70;;
65377;SDS011;51982;51.042;13.806;2023-11-19T08:18:16;2.35;;;1.60;;
65377;SDS011;51982;51.042;13.806;2023-11-19T08:20:43;4.38;;;2.78;;
65377;SDS011;51982;51.042;13.806;2023-11-19T08:23:09;4.15;;;2.45;;
65377;SDS011;51982;51.042;13.806;2023-11-19T08:25:35;5.18;;;2.88;;
65377;SDS011;51982;51.042;13.806;2023-11-19T08:28:00;3.22;;;2.30;;
65377;SDS011;51982;51.042;13.806;2023-11-19T08:30:26;3.05;;;2.10;;
65377;SDS011;51982;51.042;13.806;2023-11-19T08:32:52;1.73;;;1.40;;
65377;SDS011;51982;51.042;13.806;2023-11-19T08:35:17;3.83;;;1.73;;
65377;SDS011;51982;51.042;13.806;2023-11-19T08:37:42;2.45;;;1.58;;
65377;SDS011;51982;51.042;13.806;2023-11-19T08:40:08;2.20;;;1.50;;
65377;SDS011;51982;51.042;13.806;2023-11-19T08:42:34;2.38;;;1.63;;
65377;SDS011;51982;51.042;13.806;2023-11-19T08:45:00;2.22;;;1.63;;
65377;SDS011;51982;51.042;13.806;2023-11-19T08:47:25;2.38;;;1.65;;
65377;SDS011;51982;51.042;13.806;2023-11-19T08:49:50;4.20;;;1.85;;
65377;SDS011;51982;51.042;13.806;2023-11-19T08:52:17;1.98;;;1.55;;
65377;SDS011;51982;51.042;13.806;2023-11-19T08:54:42;1.75;;;1.52;;
65377;SDS011;51982;51.042;13.806;2023-11-19T08:57:08;2.65;;;1.70;;
65377;SDS011;51982;51.042;13.806;2023-11-19T08:59:33;3.88;;;2.55;;
65377;SDS011;51982;51.042;13.806;2023-11-19T09:01:59;3.42;;;2.35;;
65377;SDS011;51982;51.042;13.806;2023-11-19T09:04:24;6.10;;;3.10;;
65377;SDS011;51982;51.042;13.806;2023-11-19T09:06:50;6.55;;;3.20;;
65377;SDS011;51982;51.042;13.806;2023-11-19T09:09:16;2.90;;;1.80;;
65377;SDS011;51982;51.042;13.806;2023-11-19T09:11:41;5.03;;;2.47;;
65377;SDS011;51982;51.042;13.806;2023-11-19T09:14:07;6.82;;;2.63;;
65377;SDS011;51982;51.042;13.806;2023-11-19T09:16:32;3.15;;;2.05;;
65377;SDS011;51982;51.042;13.806;2023-11-19T09:18:58;5.82;;;3.03;;
65377;SDS011;51982;51.042;13.806;2023-11-19T09:21:24;8.35;;;4.20;;
65377;SDS011;51982;51.042;13.806;2023-11-19T09:23:54;5.93;;;3.53;;
65377;SDS011;51982;51.042;13.806;2023-11-19T09:26:19;8.48;;;4.88;;
65377;SDS011;51982;51.042;13.806;2023-11-19T09:28:45;7.53;;;3.75;;
65377;SDS011;51982;51.042;13.806;2023-11-19T09:31:14;7.05;;;3.78;;
65377;SDS011;51982;51.042;13.806;2023-11-19T09:33:40;5.75;;;3.75;;
65377;SDS011;51982;51.042;13.806;2023-11-19T09:36:05;11.35;;;4.10;;
65377;SDS011;51982;51.042;13.806;2023-11-19T09:38:31;6.90;;;3.65;;
65377;SDS011;51982;51.042;13.806;2023-11-19T09:40:57;7.10;;;3.67;;
65377;SDS011;51982;51.042;13.806;2023-11-19T09:43:24;6.18;;;3.65;;
65377;SDS011;51982;51.042;13.806;2023-11-19T09:45:53;4.47;;;2.92;;
65377;SDS011;51982;51.042;13.806;2023-11-19T09:48:19;5.30;;;3.38;;
65377;SDS011;51982;51.042;13.806;2023-11-19T09:50:45;6.25;;;2.90;;
65377;SDS011;51982;51.042;13.806;2023-11-19T09:53:12;5.63;;;2.83;;
65377;SDS011;51982;51.042;13.806;2023-11-19T09:55:37;6.90;;;4.18;;
65377;SDS011;51982;51.042;13.806;2023-11-19T09:58:03;6.57;;;3.78;;
65377;SDS011;51982;51.042;13.806;2023-11-19T10:00:28;4.65;;;2.78;;
65377;SDS011;51982;51.042;13.806;2023-11-19T10:02:54;4.80;;;2.70;;
65377;SDS011;51982;51.042;13.806;2023-11-19T10:05:22;3.92;;;2.88;;
65377;SDS011;51982;51.042;13.806;2023-11-19T10:07:49;3.72;;;2.45;;
65377;SDS011;51982;51.042;13.806;2023-11-19T10:10:14;3.42;;;2.60;;
65377;SDS011;51982;51.042;13.806;2023-11-19T10:12:43;5.90;;;3.00;;
65377;SDS011;51982;51.042;13.806;2023-11-19T10:15:09;4.45;;;2.78;;
65377;SDS011;51982;51.042;13.806;2023-11-19T10:17:44;4.65;;;3.00;;
65377;SDS011;51982;51.042;13.806;2023-11-19T10:20:09;7.78;;;3.45;;
65377;SDS011;51982;51.042;13.806;2023-11-19T10:22:36;7.43;;;3.45;;
65377;SDS011;51982;51.042;13.806;2023-11-19T10:25:03;7.07;;;3.38;;
65377;SDS011;51982;51.042;13.806;2023-11-19T10:27:28;5.38;;;2.70;;
65377;SDS011;51982;51.042;13.806;2023-11-19T10:29:53;4.60;;;1.67;;
65377;SDS011;51982;51.042;13.806;2023-11-19T10:32:19;5.13;;;1.50;;
65377;SDS011;51982;51.042;13.806;2023-11-19T10:34:44;2.30;;;1.15;;
65377;SDS011;51982;51.042;13.806;2023-11-19T10:37:16;3.42;;;0.98;;
65377;SDS011;51982;51.042;13.806;2023-11-19T10:39:53;2.85;;;0.80;;
65377;SDS011;51982;51.042;13.806;2023-11-19T10:42:22;3.45;;;0.80;;
65377;SDS011;51982;51.042;13.806;2023-11-19T10:44:47;4.45;;;0.98;;
65377;SDS011;51982;51.042;13.806;2023-11-19T10:47:18;2.58;;;0.98;;
65377;SDS011;51982;51.042;13.806;2023-11-19T10:49:44;4.03;;;0.77;;
65377;SDS011;51982;51.042;13.806;2023-11-19T10:52:11;1.63;;;0.77;;
65377;SDS011;51982;51.042;13.806;2023-11-19T10:54:37;4.35;;;0.93;;
65377;SDS011;51982;51.042;13.806;2023-11-19T10:57:05;3.60;;;1.00;;
65377;SDS011;51982;51.042;13.806;2023-11-19T10:59:34;1.15;;;0.75;;
65377;SDS011;51982;51.042;13.806;2023-11-19T11:02:03;4.70;;;1.17;;
65377;SDS011;51982;51.042;13.806;2023-11-19T11:04:32;4.03;;;1.20;;
65377;SDS011;51982;51.042;13.806;2023-11-19T11:07:02;1.48;;;0.77;;
65377;SDS011;51982;51.042;13.806;2023-11-19T11:09:29;2.03;;;0.75;;
65377;SDS011;51982;51.042;13.806;2023-11-19T11:11:55;3.22;;;1.13;;
65377;SDS011;51982;51.042;13.806;2023-11-19T11:14:22;3.63;;;0.90;;
65377;SDS011;51982;51.042;13.806;2023-11-19T11:16:49;1.17;;;0.70;;
65377;SDS011;51982;51.042;13.806;2023-11-19T11:19:15;1.75;;;0.70;;
65377;SDS011;51982;51.042;13.806;2023-11-19T11:21:42;1.17;;;0.80;;
65377;SDS011;51982;51.042;13.806;2023-11-19T11:24:24;3.20;;;0.90;;
65377;SDS011;51982;51.042;13.806;2023-11-19T11:27:13;2.22;;;0.80;;
65377;SDS011;51982;51.042;13.806;2023-11-19T11:29:46;1.13;;;0.80;;
65377;SDS011;51982;51.042;13.806;2023-11-19T11:32:38;3.10;;;0.90;;
65377;SDS011;51982;51.042;13.806;2023-11-19T11:37:53;2.78;;;1.10;;
65377;SDS011;51982;51.042;13.806;2023-11-19T11:40:25;1.50;;;0.80;;
65377;SDS011;51982;51.042;13.806;2023-11-19T11:42:51;3.38;;;1.20;;
65377;SDS011;51982;51.042;13.806;2023-11-19T11:45:17;1.77;;;0.70;;
65377;SDS011;51982;51.042;13.806;2023-11-19T11:50:21;3.42;;;0.90;;
65377;SDS011;51982;51.042;13.806;2023-11-19T11:55:34;6.15;;;0.90;;
65377;SDS011;51982;51.042;13.806;2023-11-19T11:58:02;4.40;;;1.45;;
65377;SDS011;51982;51.042;13.806;2023-11-19T12:02:54;5.18;;;1.35;;
65377;SDS011;51982;51.042;13.806;2023-11-19T12:05:20;4.82;;;0.80;;
65377;SDS011;51982;51.042;13.806;2023-11-19T12:07:55;3.17;;;0.82;;
65377;SDS011;51982;51.042;13.806;2023-11-19T12:10:23;3.13;;;1.20;;
65377;SDS011;51982;51.042;13.806;2023-11-19T12:12:52;2.15;;;1.00;;
65377;SDS011;51982;51.042;13.806;2023-11-19T12:15:18;2.75;;;1.10;;
65377;SDS011;51982;51.042;13.806;2023-11-19T12:17:48;3.60;;;1.05;;
65377;SDS011;51982;51.042;13.806;2023-11-19T12:20:15;3.17;;;0.93;;
65377;SDS011;51982;51.042;13.806;2023-11-19T12:22:42;3.65;;;1.15;;
65377;SDS011;51982;51.042;13.806;2023-11-19T12:25:09;3.22;;;1.00;;
65377;SDS011;51982;51.042;13.806;2023-11-19T12:27:36;6.50;;;1.20;;
65377;SDS011;51982;51.042;13.806;2023-11-19T12:30:04;6.03;;;1.08;;
65377;SDS011;51982;51.042;13.806;2023-11-19T12:32:42;5.22;;;1.10;;
65377;SDS011;51982;51.042;13.806;2023-11-19T12:35:09;4.50;;;1.42;;
65377;SDS011;51982;51.042;13.806;2023-11-19T12:37:41;7.50;;;1.73;;
65377;SDS011;51982;51.042;13.806;2023-11-19T12:42:39;5.18;;;1.30;;
65377;SDS011;51982;51.042;13.806;2023-11-19T12:45:07;5.43;;;1.27;;
65377;SDS011;51982;51.042;13.806;2023-11-19T12:50:12;3.40;;;0.95;;
65377;SDS011;51982;51.042;13.806;2023-11-19T12:52:43;5.95;;;1.33;;
65377;SDS011;51982;51.042;13.806;2023-11-19T12:55:27;6.82;;;1.10;;
65377;SDS011;51982;51.042;13.806;2023-11-19T12:57:54;3.38;;;1.02;;
65377;SDS011;51982;51.042;13.806;2023-11-19T13:00:21;4.72;;;1.20;;
65377;SDS011;51982;51.042;13.806;2023-11-19T13:02:48;11.10;;;1.67;;
65377;SDS011;51982;51.042;13.806;2023-11-19T13:05:28;10.43;;;1.40;;
65377;SDS011;51982;51.042;13.806;2023-11-19T13:08:07;5.07;;;1.20;;
65377;SDS011;51982;51.042;13.806;2023-11-19T13:13:20;5.28;;;1.35;;
65377;SDS011;51982;51.042;13.806;2023-11-19T13:15:45;2.95;;;1.00;;
65377;SDS011;51982;51.042;13.806;2023-11-19T13:18:11;7.50;;;1.42;;
65377;SDS011;51982;51.042;13.806;2023-11-19T13:20:37;9.82;;;1.48;;
65377;SDS011;51982;51.042;13.806;2023-11-19T13:23:04;5.60;;;1.30;;
65377;SDS011;51982;51.042;13.806;2023-11-19T13:25:30;3.13;;;0.93;;
65377;SDS011;51982;51.042;13.806;2023-11-19T13:27:59;6.38;;;1.20;;
65377;SDS011;51982;51.042;13.806;2023-11-19T13:30:25;7.50;;;1.38;;
65377;SDS011;51982;51.042;13.806;2023-11-19T13:32:51;6.80;;;1.40;;
65377;SDS011;51982;51.042;13.806;2023-11-19T13:35:17;6.05;;;1.20;;
65377;SDS011;51982;51.042;13.806;2023-11-19T13:37:46;6.03;;;1.25;;
65377;SDS011;51982;51.042;13.806;2023-11-19T13:40:13;8.82;;;1.25;;
65377;SDS011;51982;51.042;13.806;2023-11-19T13:42:43;9.40;;;1.95;;
65377;SDS011;51982;51.042;13.806;2023-11-19T13:45:10;8.95;;;1.52;;
65377;SDS011;51982;51.042;13.806;2023-11-19T13:47:37;8.35;;;1.45;;
65377;SDS011;51982;51.042;13.806;2023-11-19T13:50:06;11.25;;;1.70;;
65377;SDS011;51982;51.042;13.806;2023-11-19T13:52:41;9.70;;;1.83;;
65377;SDS011;51982;51.042;13.806;2023-11-19T13:55:08;9.32;;;1.75;;
65377;SDS011;51982;51.042;13.806;2023-11-19T13:57:35;8.65;;;2.17;;
65377;SDS011;51982;51.042;13.806;2023-11-19T14:00:04;10.18;;;2.20;;
65377;SDS011;51982;51.042;13.806;2023-11-19T14:02:38;14.25;;;1.95;;
65377;SDS011;51982;51.042;13.806;2023-11-19T14:05:05;7.22;;;1.95;;
65377;SDS011;51982;51.042;13.806;2023-11-19T14:07:30;9.80;;;2.30;;
65377;SDS011;51982;51.042;13.806;2023-11-19T14:09:56;10.32;;;2.10;;
65377;SDS011;51982;51.042;13.806;2023-11-19T14:12:21;7.82;;;1.88;;
65377;SDS011;51982;51.042;13.806;2023-11-19T14:14:47;8.40;;;1.40;;
65377;SDS011;51982;51.042;13.806;2023-11-19T14:17:15;6.20;;;1.70;;
65377;SDS011;51982;51.042;13.806;2023-11-19T14:19:43;7.70;;;1.42;;
65377;SDS011;51982;51.042;13.806;2023-11-19T14:22:09;6.75;;;1.50;;
65377;SDS011;51982;51.042;13.806;2023-11-19T14:24:34;6.45;;;1.25;;
65377;SDS011;51982;51.042;13.806;2023-11-19T14:27:00;6.53;;;1.27;;
65377;SDS011;51982;51.042;13.806;2023-11-19T14:29:26;7.00;;;1.23;;
65377;SDS011;51982;51.042;13.806;2023-11-19T14:31:52;13.43;;;2.05;;
65377;SDS011;51982;51.042;13.806;2023-11-19T14:34:19;10.43;;;1.63;;
65377;SDS011;51982;51.042;13.806;2023-11-19T14:36:44;7.85;;;1.45;;
65377;SDS011;51982;51.042;13.806;2023-11-19T14:39:10;5.65;;;1.33;;
65377;SDS011;51982;51.042;13.806;2023-11-19T14:41:35;6.93;;;1.50;;
65377;SDS011;51982;51.042;13.806;2023-11-19T14:44:00;6.68;;;1.42;;
65377;SDS011;51982;51.042;13.806;2023-11-19T14:46:26;10.63;;;1.80;;
65377;SDS011;51982;51.042;13.806;2023-11-19T14:48:52;5.88;;;1.30;;
65377;SDS011;51982;51.042;13.806;2023-11-19T14:51:17;9.80;;;2.05;;